Terminal Aerodrome Forecast
Issued by NWS

Current Version | Previous Version | Text Only | Print | Product List | Glossary On
Versions: 1 2 3 4 5 6 7 8 9 10 11 12 13
053
FTUS46 KSEW 100648 RRA
TAFPAE
TAF
KPAE 100648Z 1007/1106 17008KT P6SM SCT250
     FM101200 17008KT P6SM OVC120
     FM101800 17010KT P6SM OVC060
     FM102000 18010KT P6SM OVC040
      TEMPO 1020/1024 -RA=

USA.gov is the U.S. government's official web portal to all federal, state and local government web resources and services.